createdAt,value
2019-06-07T00:00:52.656Z,12.61
2019-06-07T00:03:27.442Z,12.58
2019-06-07T00:05:50.722Z,12.53
2019-06-07T00:08:26.969Z,12.50
2019-06-07T00:10:48.771Z,12.41
2019-06-07T00:13:20.223Z,12.41
2019-06-07T00:15:47.768Z,12.46
2019-06-07T00:18:20.976Z,12.40
2019-06-07T00:20:45.858Z,12.40
2019-06-07T00:23:17.228Z,12.40
2019-06-07T00:25:43.880Z,12.36
2019-06-07T00:28:13.238Z,12.36
2019-06-07T00:30:51.203Z,12.33
2019-06-07T00:33:16.612Z,12.29
2019-06-07T00:35:42.122Z,12.25
2019-06-07T00:38:11.793Z,12.22
2019-06-07T00:40:40.174Z,10.70
2019-06-07T00:43:08.323Z,12.11
2019-06-07T00:45:36.499Z,12.12
2019-06-07T00:48:04.715Z,12.06
2019-06-07T00:50:32.917Z,12.02
2019-06-07T00:53:26.946Z,11.97
2019-06-07T00:55:30.917Z,11.95
2019-06-07T00:57:59.049Z,11.92
2019-06-07T01:00:27.236Z,11.91
2019-06-07T01:02:55.376Z,11.89
2019-06-07T01:05:31.102Z,11.83
2019-06-07T01:07:53.392Z,11.79
2019-06-07T01:10:50.164Z,11.74
2019-06-07T01:12:51.700Z,11.69
2019-06-07T01:15:28.558Z,11.65
2019-06-07T01:18:33.111Z,11.60
2019-06-07T01:20:24.831Z,11.58
2019-06-07T01:22:53.352Z,11.53
2019-06-07T01:25:23.818Z,11.51
2019-06-07T01:27:51.614Z,11.48
2019-06-07T01:30:23.752Z,11.43
2019-06-07T01:32:49.975Z,11.41
2019-06-07T01:35:20.216Z,11.35
2019-06-07T01:37:47.965Z,11.35
2019-06-07T01:40:19.563Z,11.26
2019-06-07T01:42:46.938Z,11.21
2019-06-07T01:45:17.926Z,11.24
2019-06-07T01:47:45.412Z,11.23
2019-06-07T01:50:13.951Z,11.17
2019-06-07T01:52:42.127Z,11.12
2019-06-07T01:55:10.626Z,11.06
2019-06-07T01:57:48.138Z,11.01
2019-06-07T02:00:10.633Z,10.97
2019-06-07T02:02:38.779Z,10.99
2019-06-07T02:05:11.678Z,10.93
2019-06-07T02:07:39.940Z,10.93
2019-06-07T02:10:09.637Z,10.87
2019-06-07T02:12:43.278Z,10.80
2019-06-07T02:15:08.645Z,10.79
2019-06-07T02:17:36.877Z,10.78
2019-06-07T02:20:06.208Z,10.76
2019-06-07T02:22:34.448Z,10.70
2019-06-07T02:25:34.969Z,10.67
2019-06-07T02:27:32.889Z,10.66
2019-06-07T02:30:35.133Z,10.62
2019-06-07T02:32:36.712Z,10.58
2019-06-07T02:35:04.707Z,9.06
2019-06-07T02:37:36.547Z,10.50
2019-06-07T02:40:02.879Z,10.48
2019-06-07T02:42:38.964Z,10.48
2019-06-07T02:45:00.955Z,10.44
2019-06-07T02:47:32.308Z,10.35
2019-06-07T02:49:58.943Z,10.35
2019-06-07T02:52:29.302Z,10.33
2019-06-07T02:54:56.939Z,10.32
2019-06-07T02:57:28.314Z,10.27
2019-06-07T03:00:16.550Z,10.25
2019-06-07T03:02:26.661Z,10.22
2019-06-07T03:04:54.814Z,10.20
2019-06-07T03:07:23.738Z,10.14
2019-06-07T03:09:52.432Z,10.13
2019-06-07T03:12:22.428Z,10.10
2019-06-07T03:14:52.888Z,10.03
2019-06-07T03:17:40.875Z,10.08
2019-06-07T03:20:10.482Z,10.03
2019-06-07T03:22:42.003Z,10.09
2019-06-07T03:25:10.208Z,10.02
2019-06-07T03:27:48.302Z,9.89
2019-06-07T03:30:36.233Z,10.08
2019-06-07T03:32:46.294Z,10.09
2019-06-07T03:35:07.691Z,10.04
2019-06-07T03:37:40.751Z,9.98
2019-06-07T03:40:07.029Z,9.95
2019-06-07T03:42:39.719Z,9.82
2019-06-07T03:45:06.056Z,9.89
2019-06-07T03:47:36.513Z,10.03
2019-06-07T03:50:04.738Z,10.03
2019-06-07T03:52:35.624Z,9.85
2019-06-07T03:55:02.819Z,9.64
2019-06-07T03:58:28.624Z,9.68
2019-06-07T04:00:00.860Z,9.85
2019-06-07T04:02:30.383Z,10.04
2019-06-07T04:04:58.958Z,9.96
2019-06-07T04:07:28.973Z,9.82
2019-06-07T04:09:56.950Z,9.75
2019-06-07T04:12:25.114Z,9.59
2019-06-07T04:14:53.269Z,9.78
2019-06-07T04:17:21.427Z,10.18
2019-06-07T04:19:49.611Z,10.20
2019-06-07T04:22:17.742Z,9.85
2019-06-07T04:24:45.958Z,9.73
2019-06-07T04:27:14.137Z,10.26
2019-06-07T04:30:05.355Z,10.21
2019-06-07T04:32:12.215Z,10.01
2019-06-07T04:34:43.157Z,9.75
2019-06-07T04:37:10.746Z,9.70
2019-06-07T04:39:44.650Z,9.75
2019-06-07T04:42:10.865Z,9.85
2019-06-07T04:44:42.607Z,9.92
2019-06-07T04:47:12.387Z,9.88
2019-06-07T04:49:44.241Z,10.17
2019-06-07T04:52:13.903Z,10.50
2019-06-07T04:54:45.936Z,10.53
2019-06-07T04:57:11.873Z,10.32
2019-06-07T05:00:10.932Z,10.59
2019-06-07T05:02:09.924Z,10.62
2019-06-07T05:04:39.783Z,10.46
2019-06-07T05:07:08.196Z,10.64
2019-06-07T05:09:40.470Z,10.94
2019-06-07T05:12:06.369Z,10.79
2019-06-07T05:14:36.579Z,11.02
2019-06-07T05:17:04.405Z,11.25
2019-06-07T05:19:35.255Z,11.36
2019-06-07T05:22:05.085Z,11.14
2019-06-07T05:24:35.581Z,11.27
2019-06-07T05:27:02.162Z,11.60
2019-06-07T05:29:30.792Z,11.66
2019-06-07T05:31:59.078Z,11.74
2019-06-07T05:34:27.251Z,10.47
2019-06-07T05:37:11.209Z,11.52
2019-06-07T05:39:25.209Z,11.68
2019-06-07T05:41:53.343Z,11.57
2019-06-07T05:44:21.482Z,11.92
2019-06-07T05:46:49.598Z,12.09
2019-06-07T05:49:17.743Z,12.11
2019-06-07T05:51:45.947Z,12.06
2019-06-07T05:54:14.053Z,12.31
2019-06-07T05:56:43.251Z,12.43
2019-06-07T05:59:12.102Z,12.19
2019-06-07T06:01:53.382Z,11.96
2019-06-07T06:04:10.120Z,12.24
2019-06-07T06:06:39.500Z,12.54
2019-06-07T06:09:13.879Z,12.55
2019-06-07T06:11:49.507Z,12.13
2019-06-07T06:14:08.664Z,12.49
2019-06-07T06:16:37.214Z,12.54
2019-06-07T06:19:05.493Z,12.90
2019-06-07T06:21:33.720Z,13.11
2019-06-07T06:24:01.901Z,13.40
2019-06-07T06:26:30.083Z,13.58
2019-06-07T06:28:58.397Z,14.01
2019-06-07T06:31:26.629Z,14.27
2019-06-07T06:33:54.754Z,14.46
2019-06-07T06:36:23.137Z,14.52
2019-06-07T06:38:51.647Z,15.10
2019-06-07T06:41:21.108Z,15.10
2019-06-07T06:43:52.119Z,15.14
2019-06-07T06:46:37.493Z,15.37
2019-06-07T06:48:54.969Z,15.31
2019-06-07T06:51:19.042Z,15.62
2019-06-07T06:53:49.965Z,15.93
2019-06-07T06:56:17.118Z,15.68
2019-06-07T06:59:35.225Z,15.97
2019-06-07T07:01:15.146Z,15.97
2019-06-07T07:04:00.092Z,16.40
2019-06-07T07:06:25.792Z,16.40
2019-06-07T07:08:47.868Z,16.61
2019-06-07T07:11:15.077Z,16.61
2019-06-07T07:13:45.331Z,16.97
2019-06-07T07:16:13.106Z,17.38
2019-06-07T07:18:41.776Z,17.57
2019-06-07T07:21:10.100Z,17.79
2019-06-07T07:23:38.258Z,18.10
2019-06-07T07:26:06.368Z,18.24
2019-06-07T07:28:34.460Z,18.31
2019-06-07T07:31:02.657Z,18.28
2019-06-07T07:34:20.912Z,18.30
2019-06-07T07:36:37.386Z,18.55
2019-06-07T07:38:29.731Z,18.66
2019-06-07T07:41:13.321Z,18.76
2019-06-07T07:43:27.944Z,18.26
2019-06-07T07:46:02.191Z,18.81
2019-06-07T07:48:25.986Z,18.94
2019-06-07T07:51:00.092Z,18.59
2019-06-07T07:53:23.275Z,18.91
2019-06-07T07:55:54.937Z,18.53
2019-06-07T07:58:21.223Z,19.28
2019-06-07T08:00:54.942Z,19.78
2019-06-07T08:03:18.577Z,19.92
2019-06-07T08:05:47.597Z,20.01
2019-06-07T08:08:16.640Z,20.24
2019-06-07T08:10:44.792Z,20.40
2019-06-07T08:13:24.699Z,20.53
2019-06-07T08:15:41.871Z,20.15
2019-06-07T08:18:10.129Z,20.07
2019-06-07T08:20:38.235Z,20.47
2019-06-07T08:23:08.477Z,20.75
2019-06-07T08:25:35.350Z,21.36
2019-06-07T08:28:03.552Z,20.14
2019-06-07T08:30:51.292Z,21.28
2019-06-07T08:33:24.653Z,21.78
2019-06-07T08:36:03.267Z,21.64
2019-06-07T08:38:26.429Z,22.04
2019-06-07T08:40:29.519Z,22.19
2019-06-07T08:43:15.110Z,22.01
2019-06-07T08:45:26.692Z,21.67
2019-06-07T08:47:58.181Z,21.76
2019-06-07T08:50:23.666Z,22.36
2019-06-07T08:52:56.311Z,22.60
2019-06-07T08:55:20.856Z,23.27
2019-06-07T08:57:48.990Z,21.10
2019-06-07T09:00:43.300Z,21.26
2019-06-07T09:02:47.631Z,20.99
2019-06-07T09:05:16.651Z,21.15
2019-06-07T09:07:44.827Z,20.61
2019-06-07T09:10:15.465Z,21.14
2019-06-07T09:12:43.998Z,20.91
2019-06-07T09:15:21.231Z,21.64
2019-06-07T09:18:29.311Z,21.86
2019-06-07T09:20:35.011Z,21.89
2019-06-07T09:22:43.310Z,20.79
2019-06-07T09:25:20.760Z,21.34
2019-06-07T09:27:42.101Z,21.62
2019-06-07T09:30:18.667Z,21.52
2019-06-07T09:32:42.773Z,22.14
2019-06-07T09:35:16.996Z,22.21
2019-06-07T09:38:07.749Z,22.91
2019-06-07T09:40:25.226Z,22.14
2019-06-07T09:42:41.107Z,23.58
2019-06-07T09:45:13.875Z,23.57
2019-06-07T09:47:39.490Z,24.58
2019-06-07T09:50:11.417Z,25.48
2019-06-07T09:52:57.272Z,25.07
2019-06-07T09:55:23.136Z,26.26
2019-06-07T09:57:37.489Z,26.65
2019-06-07T10:00:37.042Z,27.03
2019-06-07T10:02:39.256Z,27.37
2019-06-07T10:05:13.470Z,24.46
2019-06-07T10:07:37.282Z,26.08
2019-06-07T10:12:35.828Z,27.03
2019-06-07T10:15:05.360Z,28.13
2019-06-07T10:17:33.572Z,28.71
2019-06-07T10:20:02.533Z,28.04
2019-06-07T10:22:31.652Z,29.05
2019-06-07T10:24:59.830Z,28.57
2019-06-07T10:27:27.986Z,29.72
2019-06-07T10:29:56.202Z,28.68
2019-06-07T10:32:24.375Z,28.90
2019-06-07T10:34:52.481Z,27.52
2019-06-07T10:37:20.673Z,24.97
2019-06-07T10:39:49.476Z,27.79
2019-06-07T10:42:17.642Z,29.58
2019-06-07T10:44:45.950Z,29.80
2019-06-07T10:47:14.088Z,30.49
2019-06-07T10:49:42.213Z,29.07
2019-06-07T10:52:11.688Z,28.48
2019-06-07T10:54:40.408Z,30.27
2019-06-07T10:57:12.144Z,29.12
2019-06-07T10:59:38.493Z,30.31
2019-06-07T11:02:07.932Z,29.57
2019-06-07T11:04:36.136Z,29.04
2019-06-07T11:07:05.016Z,29.88
2019-06-07T11:09:34.480Z,27.22
2019-06-07T11:12:04.227Z,29.89
2019-06-07T11:14:32.708Z,30.14
2019-06-07T11:17:01.041Z,27.67
2019-06-07T11:19:29.212Z,29.14
2019-06-07T11:21:57.342Z,29.41
2019-06-07T11:24:25.584Z,28.60
2019-06-07T11:26:53.798Z,28.78
2019-06-07T11:29:22.073Z,30.74
2019-06-07T11:31:50.250Z,29.26
2019-06-07T11:34:18.909Z,29.34
2019-06-07T11:36:47.226Z,29.94
2019-06-07T11:39:15.326Z,30.58
2019-06-07T11:41:43.520Z,31.23
2019-06-07T11:44:12.880Z,32.06
2019-06-07T11:46:41.323Z,30.21
2019-06-07T11:49:10.881Z,30.93
2019-06-07T11:51:39.554Z,31.60
2019-06-07T11:54:07.895Z,29.86
2019-06-07T11:56:36.222Z,29.53
2019-06-07T11:59:04.447Z,28.67
2019-06-07T12:01:32.637Z,31.05
2019-06-07T12:04:00.877Z,31.13
2019-06-07T12:06:29.206Z,30.86
2019-06-07T12:08:57.325Z,31.35
2019-06-07T12:11:25.531Z,29.55
2019-06-07T12:13:53.859Z,32.45
2019-06-07T12:16:21.962Z,32.98
2019-06-07T12:18:50.357Z,32.84
2019-06-07T12:21:19.892Z,32.75
2019-06-07T12:23:48.231Z,32.59
2019-06-07T12:26:16.646Z,32.26
2019-06-07T12:28:44.883Z,29.67
2019-06-07T12:31:13.141Z,32.76
2019-06-07T12:33:41.275Z,33.90
2019-06-07T12:36:09.489Z,33.98
2019-06-07T12:38:37.797Z,34.21
2019-06-07T12:41:06.150Z,32.43
2019-06-07T12:43:34.354Z,33.16
2019-06-07T12:46:02.654Z,31.86
2019-06-07T12:48:30.941Z,33.97
2019-06-07T12:50:59.254Z,31.59
2019-06-07T12:53:28.265Z,33.96
2019-06-07T12:55:55.706Z,32.92
2019-06-07T12:58:31.019Z,30.97
2019-06-07T13:00:53.756Z,32.76
2019-06-07T13:03:22.606Z,32.39
2019-06-07T13:05:50.985Z,34.12
2019-06-07T13:08:19.806Z,31.23
2019-06-07T13:10:48.195Z,32.07
2019-06-07T13:13:17.842Z,31.78
2019-06-07T13:15:46.159Z,34.37
2019-06-07T13:18:15.624Z,34.82
2019-06-07T13:20:44.271Z,35.40
2019-06-07T13:23:12.401Z,35.38
2019-06-07T13:25:46.100Z,35.30
2019-06-07T13:28:10.755Z,34.34
2019-06-07T13:30:38.896Z,35.09
2019-06-07T13:33:08.115Z,33.29
2019-06-07T13:35:36.212Z,34.37
2019-06-07T13:38:04.539Z,35.15
2019-06-07T13:40:32.699Z,32.35
2019-06-07T13:43:00.952Z,29.89
2019-06-07T13:45:29.201Z,30.94
2019-06-07T13:47:57.442Z,30.39
2019-06-07T13:50:26.058Z,29.85
2019-06-07T13:52:54.239Z,27.10
2019-06-07T13:55:23.850Z,27.10
2019-06-07T13:57:52.122Z,28.01
2019-06-07T14:00:21.585Z,29.92
2019-06-07T14:02:50.380Z,28.86
2019-06-07T14:05:18.789Z,28.16
2019-06-07T14:07:47.109Z,29.31
2019-06-07T14:10:15.350Z,29.00
2019-06-07T14:12:43.524Z,29.82
2019-06-07T14:15:13.604Z,26.96
2019-06-07T14:17:41.882Z,28.72
2019-06-07T14:20:10.797Z,28.87
2019-06-07T14:22:39.392Z,29.19
2019-06-07T14:25:07.935Z,28.83
2019-06-07T14:27:36.147Z,28.52
2019-06-07T14:30:05.406Z,28.42
2019-06-07T14:32:33.535Z,28.65
2019-06-07T14:35:01.687Z,27.56
2019-06-07T14:37:30.932Z,27.02
2019-06-07T14:39:59.340Z,26.38
2019-06-07T14:42:27.534Z,28.49
2019-06-07T14:44:56.035Z,29.59
2019-06-07T14:47:24.166Z,28.80
2019-06-07T14:49:52.318Z,29.43
2019-06-07T14:52:20.551Z,27.26
2019-06-07T14:54:48.888Z,28.05
2019-06-07T14:57:17.071Z,28.33
2019-06-07T14:59:45.174Z,27.34
2019-06-07T15:02:13.527Z,28.84
2019-06-07T15:04:43.428Z,27.99
2019-06-07T15:07:14.268Z,28.40
2019-06-07T15:09:42.497Z,28.13
2019-06-07T15:12:24.122Z,28.01
2019-06-07T15:14:40.589Z,28.27
2019-06-07T15:17:08.816Z,28.95
2019-06-07T15:19:37.003Z,28.42
2019-06-07T15:22:05.076Z,29.70
2019-06-07T15:24:36.140Z,29.12
2019-06-07T15:27:03.328Z,29.95
2019-06-07T15:29:31.834Z,30.13
2019-06-07T15:31:59.982Z,28.97
2019-06-07T15:34:29.220Z,29.26
2019-06-07T15:36:58.304Z,29.13
2019-06-07T15:39:26.541Z,29.38
2019-06-07T15:41:54.666Z,29.29
2019-06-07T15:44:22.926Z,28.96
2019-06-07T15:46:51.137Z,29.80
2019-06-07T15:49:19.291Z,30.23
2019-06-07T15:51:47.463Z,27.72
2019-06-07T15:54:15.641Z,29.35
2019-06-07T15:56:43.902Z,29.20
2019-06-07T15:59:12.157Z,29.69
2019-06-07T16:01:41.904Z,29.31
2019-06-07T16:04:10.361Z,28.68
2019-06-07T16:06:40.395Z,28.13
2019-06-07T16:09:09.057Z,29.41
2019-06-07T16:11:38.915Z,29.02
2019-06-07T16:14:07.129Z,29.01
2019-06-07T16:16:35.413Z,28.54
2019-06-07T16:19:03.565Z,28.18
2019-06-07T16:21:33.159Z,28.26
2019-06-07T16:24:01.691Z,28.57
2019-06-07T16:26:29.857Z,29.73
2019-06-07T16:28:58.340Z,29.45
2019-06-07T16:31:26.535Z,28.28
2019-06-07T16:33:54.651Z,28.93
2019-06-07T16:36:22.824Z,29.02
2019-06-07T16:38:50.966Z,28.03
2019-06-07T16:41:19.177Z,27.75
2019-06-07T16:43:47.273Z,26.14
2019-06-07T16:46:15.422Z,29.10
2019-06-07T16:48:44.935Z,29.33
2019-06-07T16:51:13.290Z,27.79
2019-06-07T16:53:42.364Z,28.26
2019-06-07T16:56:10.617Z,29.35
2019-06-07T16:58:39.915Z,29.79
2019-06-07T17:01:08.352Z,30.03
2019-06-07T17:03:37.297Z,30.06
2019-06-07T17:06:05.546Z,30.16
2019-06-07T17:08:33.664Z,30.34
2019-06-07T17:11:01.809Z,30.41
2019-06-07T17:13:33.455Z,29.77
2019-06-07T17:15:59.782Z,30.19
2019-06-07T17:18:27.937Z,30.12
2019-06-07T17:20:56.050Z,30.38
2019-06-07T17:23:24.208Z,30.47
2019-06-07T17:25:52.357Z,30.62
2019-06-07T17:28:20.508Z,29.80
2019-06-07T17:30:50.186Z,30.40
2019-06-07T17:33:18.599Z,30.12
2019-06-07T17:35:46.736Z,30.55
2019-06-07T17:38:14.853Z,30.75
2019-06-07T17:40:43.078Z,30.92
2019-06-07T17:43:11.256Z,30.57
2019-06-07T17:45:39.432Z,30.25
2019-06-07T17:48:08.783Z,30.44
2019-06-07T17:50:35.923Z,29.31
2019-06-07T17:53:04.038Z,29.85
2019-06-07T17:55:32.311Z,30.07
2019-06-07T17:58:00.405Z,30.06
2019-06-07T18:00:45.173Z,29.62
2019-06-07T18:03:13.307Z,27.71
2019-06-07T18:05:43.086Z,28.83
2019-06-07T18:08:11.698Z,29.17
2019-06-07T18:10:40.615Z,28.65
2019-06-07T18:13:08.776Z,28.44
2019-06-07T18:15:40.658Z,28.84
2019-06-07T18:18:10.260Z,28.96
2019-06-07T18:20:39.674Z,28.87
2019-06-07T18:23:06.930Z,28.67
2019-06-07T18:25:35.017Z,28.53
2019-06-07T18:28:03.179Z,28.25
2019-06-07T18:30:31.352Z,27.75
2019-06-07T18:32:59.474Z,27.86
2019-06-07T18:35:27.592Z,27.58
2019-06-07T18:37:55.731Z,27.74
2019-06-07T18:40:23.935Z,27.66
2019-06-07T18:42:53.240Z,27.19
2019-06-07T18:45:21.526Z,26.89
2019-06-07T18:47:49.700Z,27.10
2019-06-07T18:50:17.877Z,27.14
2019-06-07T18:52:46.683Z,26.98
2019-06-07T18:55:15.277Z,26.74
2019-06-07T18:57:43.465Z,26.77
2019-06-07T19:00:12.047Z,26.64
2019-06-07T19:02:40.223Z,26.47
2019-06-07T19:05:09.475Z,23.98
2019-06-07T19:07:37.709Z,22.21
2019-06-07T19:10:06.928Z,20.32
2019-06-07T19:12:35.174Z,19.83
2019-06-07T19:15:03.409Z,19.81
2019-06-07T19:17:31.577Z,20.20
2019-06-07T19:20:00.699Z,18.90
2019-06-07T19:22:28.916Z,18.21
2019-06-07T19:24:58.388Z,17.86
2019-06-07T19:27:26.726Z,16.79
2019-06-07T19:29:55.266Z,17.13
2019-06-07T19:32:23.395Z,17.24
2019-06-07T19:34:53.183Z,17.00
2019-06-07T19:37:21.490Z,16.61
2019-06-07T19:39:49.644Z,16.67
2019-06-07T19:42:17.929Z,17.26
2019-06-07T19:44:54.575Z,16.92
2019-06-07T19:47:16.156Z,16.52
2019-06-07T19:49:44.618Z,15.65
2019-06-07T19:52:12.808Z,16.04
2019-06-07T19:54:40.949Z,16.74
2019-06-07T19:57:09.057Z,16.04
2019-06-07T19:59:37.391Z,16.46
2019-06-07T20:02:05.508Z,18.13
2019-06-07T20:04:33.667Z,17.89
2019-06-07T20:07:03.915Z,17.24
2019-06-07T20:09:31.670Z,15.56
2019-06-07T20:12:00.746Z,14.77
2019-06-07T20:14:29.105Z,15.56
2019-06-07T20:16:57.362Z,15.25
2019-06-07T20:19:25.564Z,15.56
2019-06-07T20:21:53.759Z,15.96
2019-06-07T20:24:27.044Z,17.21
2019-06-07T20:26:51.761Z,16.67
2019-06-07T20:29:25.765Z,16.30
2019-06-07T20:31:50.064Z,17.25
2019-06-07T20:34:18.293Z,18.09
2019-06-07T20:36:46.965Z,18.30
2019-06-07T20:39:15.254Z,18.33
2019-06-07T20:41:43.623Z,18.51
2019-06-07T20:44:12.085Z,18.58
2019-06-07T20:46:40.253Z,18.59
2019-06-07T20:49:08.530Z,18.49
2019-06-07T20:51:36.694Z,18.49
2019-06-07T20:54:05.590Z,17.04
2019-06-07T20:56:34.132Z,18.36
2019-06-07T20:59:02.794Z,18.28
2019-06-07T21:01:31.086Z,18.04
2019-06-07T21:03:59.307Z,17.95
2019-06-07T21:06:27.467Z,17.93
2019-06-07T21:08:55.615Z,17.38
2019-06-07T21:11:23.785Z,17.35
2019-06-07T21:13:51.953Z,16.83
2019-06-07T21:16:20.160Z,17.54
2019-06-07T21:18:48.407Z,16.66
2019-06-07T21:21:16.561Z,17.33
2019-06-07T21:23:44.695Z,17.49
2019-06-07T21:26:12.893Z,17.48
2019-06-07T21:28:41.171Z,17.40
2019-06-07T21:31:10.451Z,17.31
2019-06-07T21:33:38.984Z,17.33
2019-06-07T21:36:08.208Z,17.32
2019-06-07T21:38:36.543Z,17.26
2019-06-07T21:41:06.117Z,16.92
2019-06-07T21:43:34.523Z,16.41
2019-06-07T21:46:07.233Z,16.70
2019-06-07T21:48:32.986Z,16.45
2019-06-07T21:51:02.179Z,16.63
2019-06-07T21:53:30.555Z,16.93
2019-06-07T21:55:58.824Z,16.39
2019-06-07T21:58:27.316Z,16.78
2019-06-07T22:01:16.577Z,16.82
2019-06-07T22:03:44.752Z,16.78
2019-06-07T22:06:13.776Z,16.74
2019-06-07T22:08:42.130Z,16.73
2019-06-07T22:11:10.337Z,16.69
2019-06-07T22:13:38.539Z,16.53
2019-06-07T22:16:21.385Z,15.79
2019-06-07T22:18:36.598Z,15.15
2019-06-07T22:21:04.774Z,16.01
2019-06-07T22:23:33.012Z,16.04
2019-06-07T22:26:01.236Z,16.36
2019-06-07T22:28:29.488Z,16.34
2019-06-07T22:30:57.726Z,16.34
2019-06-07T22:33:25.966Z,16.24
2019-06-07T22:35:54.183Z,16.35
2019-06-07T22:38:22.346Z,16.17
2019-06-07T22:40:50.542Z,16.19
2019-06-07T22:43:19.283Z,16.24
2019-06-07T22:45:47.490Z,16.15
2019-06-07T22:48:15.694Z,16.08
2019-06-07T22:50:43.889Z,16.03
2019-06-07T22:53:12.075Z,16.22
2019-06-07T22:55:40.455Z,15.67
2019-06-07T22:58:09.923Z,15.66
2019-06-07T23:00:39.385Z,15.55
2019-06-07T23:03:08.524Z,15.41
2019-06-07T23:05:36.760Z,15.43
2019-06-07T23:08:04.944Z,15.48
2019-06-07T23:10:33.154Z,15.51
2019-06-07T23:13:02.197Z,15.49
2019-06-07T23:15:30.815Z,15.36
2019-06-07T23:17:59.006Z,15.02
2019-06-07T23:20:27.408Z,15.29
2019-06-07T23:22:55.646Z,14.97
2019-06-07T23:25:24.734Z,14.98
2019-06-07T23:27:53.164Z,15.10
2019-06-07T23:30:21.809Z,15.22
2019-06-07T23:32:50.228Z,15.22
2019-06-07T23:35:19.063Z,14.64
2019-06-07T23:37:47.320Z,14.64
2019-06-07T23:40:15.698Z,14.38
2019-06-07T23:42:43.902Z,14.57
2019-06-07T23:45:13.644Z,14.38
2019-06-07T23:47:42.146Z,14.64
2019-06-07T23:50:11.494Z,14.68
2019-06-07T23:52:39.727Z,14.30
2019-06-07T23:55:08.139Z,14.47
2019-06-07T23:57:36.350Z,14.59
